Impacts METAR Board INFO
IDs:

KDTW - Detroit Metro/Wayne, MI, US

Updated at: 0657 UTC 19 Nov 2017
Potential Impact None Slight Moderate High
Time18/18Z 18/19Z 18/20Z 18/21Z 18/22Z 18/23Z 19/00Z 19/01Z 19/02Z 19/03Z 19/04Z 19/05Z 19/06Z
VIS2 2.5 4 1.5 1.5 1.5 3 3 3 9 10 10 10
CIG3 5 3 6 6 8 15 10 10 15 19 20 25
CoverOVCOVCOVCOVCOVCOVCOVCOVCOVCOVCOVCOVCOVC
FltCatLIFRIFRLIFRIFRIFRIFRMVFRMVFRMVFRMVFRMVFRMVFRMVFR
WXRA BR+RA BR-RA BR-RA BR-RA BR-RA BRRA BR-RA -SN BR-SN -RA BR-RA------
WDir604035010360350350330330320320320310
WSpd5 3 9 11 14 15 18 12 11 12 14 17 15
WGst-- -- -- -- 19 22 25 -- -- -- 22 24 28
Raw hourly METARs
KDTW 181752Z 06005KT 2SM RA BR BKN003 BKN008 OVC015 08/08 A2933 RMK AO2 SFC VIS 2 1/2 SLP934 P0016 60025 T00830078 10083 20061 58046 $
KDTW 181853Z 04003KT 2 1/2SM +RA BR OVC005 08/07 A2932 RMK AO2 SLP931 P0022 T00780072 $
KDTW 182000Z 35009KT 4SM -RA BR OVC003 08/08 A2926 RMK AO2 P0000 T00830078 $
KDTW 182053Z 01011KT 1 1/2SM -RA BR OVC006 08/07 A2925 RMK AO2 SLP907 P0006 60055 T00780072 58023 $
KDTW 182153Z 36014G19KT 1 1/2SM -RA BR OVC006 07/07 A2926 RMK AO2 SFC VIS 2 SLP911 P0005 T00720067 $
KDTW 182253Z 35015G22KT 1 1/2SM -RA BR BKN008 OVC015 07/06 A2927 RMK AO2 SLP913 P0006 T00670061 $
KDTW 182353Z 35018G25KT 3SM RA BR BKN015 OVC025 04/03 A2933 RMK AO2 TWR VIS 4 SLP935 P0004 60070 T00440033 10083 20044 51022 $
KDTW 190053Z 33012KT 3SM -RASN BR BKN010 OVC025 02/01 A2935 RMK AO2 PK WND 34026/0002 TWR VIS 4 SNB32 SLP944 P0007 T00170011 $
KDTW 190153Z 33011KT 3SM -SNRA BR BKN010 OVC015 02/01 A2937 RMK AO2 TWR VIS 4 SLP950 P0005 T00170011 $
KDTW 190253Z 32012KT 9SM -RA BKN015 OVC025 03/01 A2943 RMK AO2 SNE36 SLP969 P0001 60013 T00280011 53034 $
KDTW 190353Z 32014G22KT 10SM OVC019 03/01 A2947 RMK AO2 PK WND 31026/0308 RAE0257B16E29 SLP983 P0000 T00330011 $
KDTW 190453Z 32017G24KT 10SM OVC020 04/01 A2950 RMK AO2 PK WND 30027/0435 SLP984 T00390006 400830017 $
KDTW 190553Z 31015G28KT 10SM BKN025 OVC035 04/01 A2954 RMK AO2 PK WND 30031/0502 SLP998 60013 T00390006 10044 20017 $